Aumsville, Oregon
Current Conditions -  °F | °C
As of 1:56 PM on Monday 22 Dec 2014 (Local Time) from KSLE Reporting Station
Broken Clouds Broken Clouds  
Wind Chill: 56°   Ceiling: 12000
Heat Index: 56°   Visibility: 10mi
Dew Point: 47°   Wind: 0mph
Humidity: 72%   Direction: NA
Pressure: 30.33"   Gusts: NA
Location:  44.84°N, 122.87°W
Report Text: KSLE 222156Z 00000KT 10SM SCT018 BKN120 13/08 A3033 RMK AO2 SLP271 T01330083
Loading
Personal Weather Stations






























Interactive Weather Map New forecast layout! Learn more

10-Day Weather Forecast

Advertisements
Track Severe Weather on mobile